Time;durP1;ratioP1;P1;durP2;ratioP2;P2;SDS_P1;SDS_P2;PMS_P1;PMS_P2;Temp;Humidity;BMP_temperature;BMP_pressure;BME280_temperature;BME280_humidity;BME280_pressure;Samples;Min_cycle;Max_cycle;Signal;HPM_P1;HPM_P2
2023/10/01 00:00:21;;;;;;;0.50;0.50;;;9.70;1.00;;;;;;4962827;28;20026;-79
2023/10/01 00:02:51;;;;;;;0.40;0.40;;;9.50;99.90;;;;;;4969891;28;20074;-80
2023/10/01 00:05:18;;;;;;;0.20;0.20;;;9.50;1.00;;;;;;4968425;28;20043;-80
2023/10/01 00:07:44;;;;;;;1.30;1.25;;;9.40;1.00;;;;;;4944040;28;20043;-80
2023/10/01 00:10:11;;;;;;;0.30;0.30;;;9.40;1.00;;;;;;4966836;28;20035;-81
2023/10/01 00:12:38;;;;;;;0.70;0.70;;;9.50;1.00;;;;;;4948428;28;20054;-79
2023/10/01 00:15:10;;;;;;;9.75;1.15;;;9.60;1.00;;;;;;4974981;28;20030;-80
2023/10/01 00:17:38;;;;;;;0.80;0.75;;;9.70;1.00;;;;;;4975736;28;20043;-79
2023/10/01 00:20:12;;;;;;;9.10;0.90;;;9.70;99.90;;;;;;4954244;28;20068;-80
2023/10/01 00:22:39;;;;;;;0.20;0.20;;;9.60;99.90;;;;;;4974036;28;20472;-78
2023/10/01 00:25:06;;;;;;;0.85;0.57;;;9.60;99.90;;;;;;4970334;28;20035;-79
2023/10/01 00:27:32;;;;;;;1.05;0.95;;;9.50;99.90;;;;;;4951883;28;20047;-79
2023/10/01 00:29:58;;;;;;;0.43;0.30;;;9.30;99.90;;;;;;4967704;28;20784;-79
2023/10/01 00:32:28;;;;;;;0.63;0.52;;;9.20;99.90;;;;;;4970067;28;20026;-80
2023/10/01 00:34:57;;;;;;;1.38;1.27;;;9.20;1.00;;;;;;4978280;28;20065;-78
2023/10/01 00:37:24;;;;;;;1.65;1.17;;;9.10;1.00;;;;;;4956076;28;20043;-78
2023/10/01 00:39:54;;;;;;;0.40;0.40;;;9.10;1.00;;;;;;4963961;28;20038;-79
2023/10/01 00:42:21;;;;;;;2.45;1.30;;;9.00;1.00;;;;;;4945390;28;20053;-79
2023/10/01 00:44:47;;;;;;;0.60;0.60;;;9.00;1.00;;;;;;4957475;28;20038;-79
2023/10/01 00:47:14;;;;;;;0.82;0.82;;;9.10;1.00;;;;;;4968915;28;20031;-80
2023/10/01 00:49:49;;;;;;;1.77;0.85;;;9.20;1.00;;;;;;4953611;28;20038;-79
2023/10/01 00:52:18;;;;;;;1.10;1.00;;;9.20;1.00;;;;;;4966447;28;20349;-79
2023/10/01 00:54:45;;;;;;;0.63;0.63;;;9.20;1.00;;;;;;4951301;28;20109;-79
2023/10/01 00:57:12;;;;;;;4.05;1.35;;;9.30;1.00;;;;;;4968967;28;20491;-78
2023/10/01 00:59:38;;;;;;;1.40;0.70;;;9.30;99.90;;;;;;4969002;28;20075;-83
2023/10/01 01:02:07;;;;;;;0.70;0.47;;;9.20;99.90;;;;;;4975177;28;20035;-78
2023/10/01 01:04:42;;;;;;;1.55;1.17;;;9.10;99.90;;;;;;4961493;28;20593;-78
2023/10/01 01:07:20;;;;;;;0.28;0.28;;;9.00;99.90;;;;;;4980023;28;20034;-80
2023/10/01 01:09:48;;;;;;;0.47;0.45;;;8.80;1.00;;;;;;4960183;28;20046;-79
2023/10/01 01:12:15;;;;;;;0.32;0.32;;;8.70;1.00;;;;;;4970999;28;20038;-79
2023/10/01 01:14:44;;;;;;;0.20;0.20;;;8.70;1.00;;;;;;4939785;28;20131;-86
2023/10/01 01:17:11;;;;;;;0.50;0.50;;;8.60;1.00;;;;;;4976702;28;20039;-79
2023/10/01 01:19:38;;;;;;;1.40;1.05;;;8.70;1.00;;;;;;4971330;28;20056;-78
2023/10/01 01:22:04;;;;;;;1.10;0.80;;;8.60;1.00;;;;;;4944631;28;20051;-79
2023/10/01 01:24:30;;;;;;;0.60;0.60;;;8.60;1.00;;;;;;4953593;28;20108;-78
2023/10/01 01:27:05;;;;;;;2.33;1.10;;;8.60;1.00;;;;;;4968058;28;20038;-79
2023/10/01 01:29:40;;;;;;;0.20;0.20;;;8.70;1.00;;;;;;4971732;28;20039;-79
2023/10/01 01:32:13;;;;;;;2.40;0.95;;;8.70;1.00;;;;;;4969850;28;20026;-79
2023/10/01 01:34:46;;;;;;;4.22;0.43;;;8.60;1.00;;;;;;4952217;28;20047;-79
2023/10/01 01:40:13;;;;;;;0.85;0.85;;;8.50;1.00;;;;;;4932423;28;20083;-81
2023/10/01 01:42:40;;;;;;;2.08;1.08;;;8.40;1.00;;;;;;4957113;28;20027;-80
2023/10/01 01:45:15;;;;;;;0.60;0.60;;;8.40;1.00;;;;;;4954683;28;20038;-81
2023/10/01 01:47:42;;;;;;;1.60;1.50;;;8.60;1.00;;;;;;4968565;28;20046;-80
2023/10/01 01:50:26;;;;;;;1.45;0.43;;;8.60;1.00;;;;;;4964606;28;20023;-80
2023/10/01 01:52:56;;;;;;;0.70;0.70;;;8.60;1.00;;;;;;4975146;28;20043;-80
2023/10/01 01:55:26;;;;;;;1.73;0.70;;;8.60;1.00;;;;;;4957459;28;20506;-79
2023/10/01 01:58:15;;;;;;;3.70;1.50;;;8.60;1.00;;;;;;4949627;28;20078;-80
2023/10/01 02:01:01;;;;;;;0.40;0.40;;;8.70;1.00;;;;;;4978321;28;20034;-80
2023/10/01 02:03:32;;;;;;;0.75;0.52;;;8.60;1.00;;;;;;4961527;28;20507;-80
2023/10/01 02:06:00;;;;;;;0.77;0.77;;;8.50;1.00;;;;;;4970609;28;20051;-79
2023/10/01 02:08:47;;;;;;;1.65;1.52;;;8.60;1.00;;;;;;4972596;28;20039;-80
2023/10/01 02:11:14;;;;;;;1.48;0.90;;;8.70;1.00;;;;;;4962889;28;20065;-80
2023/10/01 02:13:41;;;;;;;1.60;1.50;;;8.70;1.00;;;;;;4953771;28;20050;-80
2023/10/01 02:18:57;;;;;;;0.70;0.70;;;8.90;99.90;;;;;;4947671;28;20051;-81
2023/10/01 02:21:43;;;;;;;1.13;1.13;;;8.90;99.90;;;;;;4961748;28;20070;-80
2023/10/01 02:24:23;;;;;;;0.45;0.45;;;8.80;99.90;;;;;;4959788;28;20054;-80
2023/10/01 02:27:03;;;;;;;1.45;0.70;;;8.80;99.90;;;;;;4952574;28;20400;-81
2023/10/01 02:29:32;;;;;;;0.43;0.40;;;8.70;99.90;;;;;;4954011;28;20057;-80
2023/10/01 02:32:04;;;;;;;0.45;0.45;;;8.70;99.90;;;;;;4965033;28;20050;-80
2023/10/01 02:34:33;;;;;;;8.80;1.73;;;8.70;99.90;;;;;;4968334;28;20051;-80
2023/10/01 02:37:06;;;;;;;0.47;0.47;;;8.70;99.90;;;;;;4966516;28;20051;-80
2023/10/01 02:39:33;;;;;;;0.90;0.80;;;8.70;99.90;;;;;;4963025;28;20115;-80
2023/10/01 02:44:39;;;;;;;1.08;0.90;;;8.60;99.90;;;;;;4975917;28;20031;-80
2023/10/01 02:47:17;;;;;;;;;;;8.60;99.90;;;;;;4977798;28;20038;-79
2023/10/01 02:49:50;;;;;;;1.05;0.45;;;8.70;99.90;;;;;;4967022;28;19921;-80
2023/10/01 02:52:36;;;;;;;0.55;0.47;;;8.70;99.90;;;;;;4972338;28;20368;-79
2023/10/01 02:55:16;;;;;;;2.55;1.13;;;8.80;99.90;;;;;;4960736;28;20122;-79
2023/10/01 02:57:44;;;;;;;0.30;0.30;;;8.70;99.90;;;;;;4966126;28;20050;-80
2023/10/01 03:02:41;;;;;;;0.93;0.93;;;8.50;99.90;;;;;;4947586;28;20039;-80
2023/10/01 03:05:18;;;;;;;0.65;0.65;;;8.50;99.90;;;;;;4965629;28;20399;-80
2023/10/01 03:07:45;;;;;;;1.23;1.10;;;8.40;99.90;;;;;;4951609;28;20043;-81
2023/10/01 03:10:25;;;;;;;0.60;0.55;;;8.30;1.00;;;;;;4956658;28;20031;-79
2023/10/01 03:12:53;;;;;;;6.22;1.40;;;8.30;1.00;;;;;;4963911;28;20079;-81
2023/10/01 03:15:27;;;;;;;0.65;0.65;;;8.30;1.00;;;;;;4976675;28;20384;-80
2023/10/01 03:17:58;;;;;;;2.47;0.82;;;8.30;1.00;;;;;;4942101;28;20058;-83
2023/10/01 03:23:25;;;;;;;1.13;0.90;;;8.10;1.00;;;;;;4963722;28;20138;-81
2023/10/01 03:25:59;;;;;;;0.45;0.45;;;8.20;1.00;;;;;;4971969;28;20045;-78
2023/10/01 03:28:34;;;;;;;0.52;0.40;;;8.20;1.00;;;;;;4951380;28;20074;-79
2023/10/01 03:31:06;;;;;;;1.98;1.25;;;8.20;1.00;;;;;;4967052;28;20388;-79
2023/10/01 03:33:37;;;;;;;1.95;0.70;;;8.20;1.00;;;;;;4960021;28;20055;-81
2023/10/01 03:36:11;;;;;;;1.23;0.38;;;8.20;1.00;;;;;;4961840;28;20042;-80
2023/10/01 03:38:39;;;;;;;1.63;1.23;;;8.10;1.00;;;;;;4952237;28;20042;-80
2023/10/01 03:41:08;;;;;;;2.60;1.75;;;8.10;1.00;;;;;;4962761;28;20035;-79
2023/10/01 03:43:35;;;;;;;0.90;0.82;;;8.20;1.00;;;;;;4957360;28;20528;-80
2023/10/01 03:46:13;;;;;;;0.70;0.60;;;8.20;1.00;;;;;;4972662;28;20037;-80
2023/10/01 03:48:58;;;;;;;1.73;1.23;;;8.20;1.00;;;;;;4960061;28;20046;-80
2023/10/01 03:54:17;;;;;;;2.53;1.60;;;8.20;1.00;;;;;;4972180;28;20039;-80
2023/10/01 03:56:47;;;;;;;0.70;0.70;;;8.10;1.00;;;;;;4947372;28;20035;-79
2023/10/01 03:59:17;;;;;;;0.88;0.70;;;8.10;1.00;;;;;;4960617;28;20038;-80
2023/10/01 04:02:00;;;;;;;2.05;1.15;;;8.00;1.00;;;;;;4969624;28;20366;-80
2023/10/01 04:04:56;;;;;;;0.77;0.75;;;8.00;1.00;;;;;;4964965;28;20039;-80
2023/10/01 04:07:19;;;;;;;0.57;0.57;;;7.90;1.00;;;;;;4971347;28;20054;-80
2023/10/01 04:09:50;;;;;;;0.55;0.50;;;7.90;1.00;;;;;;4975036;28;20097;-80
2023/10/01 04:12:20;;;;;;;0.70;0.63;;;7.80;1.00;;;;;;4972072;28;20487;-81
2023/10/01 04:14:52;;;;;;;0.70;0.32;;;7.80;1.00;;;;;;4969956;28;20045;-80
2023/10/01 04:17:19;;;;;;;1.70;1.58;;;7.90;1.00;;;;;;4963263;28;20050;-80
2023/10/01 04:19:53;;;;;;;2.42;1.10;;;7.90;1.00;;;;;;4977932;28;20030;-80
2023/10/01 04:22:21;;;;;;;0.73;0.63;;;8.00;1.00;;;;;;4972283;28;20506;-80
2023/10/01 04:25:09;;;;;;;3.00;1.55;;;7.80;1.00;;;;;;4964920;28;20350;-79
2023/10/01 04:27:45;;;;;;;1.17;1.08;;;7.70;1.00;;;;;;4942896;28;20046;-79
2023/10/01 04:30:12;;;;;;;0.68;0.68;;;7.70;1.00;;;;;;4960250;28;20042;-79
2023/10/01 04:32:39;;;;;;;3.25;1.80;;;7.80;1.00;;;;;;4959353;28;20043;-80
2023/10/01 04:35:14;;;;;;;0.75;0.70;;;7.70;1.00;;;;;;4959466;28;20051;-79
2023/10/01 04:37:44;;;;;;;2.22;1.63;;;7.60;1.00;;;;;;4952880;28;20062;-78
2023/10/01 04:42:56;;;;;;;2.53;1.55;;;7.60;1.00;;;;;;4963608;28;20501;-79
2023/10/01 04:45:23;;;;;;;0.50;0.50;;;7.70;1.00;;;;;;4967135;28;20035;-79
2023/10/01 04:47:55;;;;;;;1.05;0.60;;;7.80;1.00;;;;;;4971866;28;20039;-80
2023/10/01 04:50:29;;;;;;;1.10;0.90;;;7.90;1.00;;;;;;4955576;28;20372;-80
2023/10/01 04:52:59;;;;;;;1.60;1.48;;;8.00;1.00;;;;;;4973915;28;20471;-81
2023/10/01 04:55:28;;;;;;;0.77;0.75;;;8.00;1.00;;;;;;4962213;28;20039;-80
2023/10/01 04:57:57;;;;;;;0.35;0.32;;;8.00;1.00;;;;;;4968476;28;20392;-80
2023/10/01 05:00:26;;;;;;;0.45;0.45;;;8.00;1.00;;;;;;4966948;28;20389;-80
2023/10/01 05:02:53;;;;;;;1.88;1.63;;;8.10;1.00;;;;;;4962414;28;20396;-80
2023/10/01 05:05:28;;;;;;;6.13;2.38;;;8.10;1.00;;;;;;4955326;28;20043;-81
2023/10/01 05:08:01;;;;;;;1.55;1.45;;;8.10;1.00;;;;;;4975775;28;20035;-79
2023/10/01 05:10:28;;;;;;;2.53;2.03;;;8.10;1.00;;;;;;4978027;28;20034;-79
2023/10/01 05:12:58;;;;;;;1.27;1.17;;;8.10;1.00;;;;;;4967483;28;20034;-79
2023/10/01 05:15:25;;;;;;;0.80;0.80;;;8.00;1.00;;;;;;4970635;28;20043;-79
2023/10/01 05:17:55;;;;;;;6.05;1.95;;;7.90;1.00;;;;;;4966865;28;20361;-79
2023/10/01 05:20:25;;;;;;;0.77;0.60;;;7.80;1.00;;;;;;4946197;28;20062;-79
2023/10/01 05:22:54;;;;;;;2.53;1.17;;;7.70;1.00;;;;;;4957425;28;20043;-78
2023/10/01 05:25:24;;;;;;;0.80;0.80;;;7.60;1.00;;;;;;4979698;28;20042;-78
2023/10/01 05:27:54;;;;;;;1.27;1.17;;;7.40;1.00;;;;;;4961979;28;20399;-79
2023/10/01 05:30:38;;;;;;;1.33;1.05;;;7.40;1.00;;;;;;4937462;28;20039;-79
2023/10/01 05:33:06;;;;;;;0.55;0.55;;;7.30;1.00;;;;;;4974904;28;20053;-79
2023/10/01 05:35:43;;;;;;;1.33;0.95;;;7.40;1.00;;;;;;4964077;28;20046;-79
2023/10/01 05:38:14;;;;;;;1.58;1.48;;;7.40;1.00;;;;;;4973233;28;20053;-78
2023/10/01 05:40:42;;;;;;;;;;;7.40;1.00;;;;;;4966007;28;20039;-78
2023/10/01 05:43:14;;;;;;;3.40;1.45;;;7.50;1.00;;;;;;4972545;28;20355;-78
2023/10/01 05:45:50;;;;;;;3.60;1.50;;;7.40;1.00;;;;;;4976718;28;20039;-80
2023/10/01 05:48:19;;;;;;;4.45;2.35;;;7.40;1.00;;;;;;4971985;28;20046;-79
2023/10/01 05:50:53;;;;;;;0.70;0.70;;;7.60;1.00;;;;;;4969357;28;20026;-79
2023/10/01 05:53:20;;;;;;;3.15;1.02;;;7.60;1.00;;;;;;4956845;28;20110;-80
2023/10/01 05:55:46;;;;;;;0.30;0.30;;;7.60;1.00;;;;;;4974862;28;20388;-79
2023/10/01 05:58:13;;;;;;;2.45;1.02;;;7.60;1.00;;;;;;4970804;28;20112;-81
2023/10/01 06:00:45;;;;;;;1.00;0.90;;;7.70;1.00;;;;;;4975202;28;20038;-80
2023/10/01 06:03:15;;;;;;;0.30;0.30;;;7.90;1.00;;;;;;4967111;28;20045;-80
2023/10/01 06:08:17;;;;;;;0.40;0.40;;;8.00;1.00;;;;;;4958438;28;20047;-82
2023/10/01 06:10:59;;;;;;;1.48;1.38;;;8.10;1.00;;;;;;4955495;28;20035;-81
2023/10/01 06:13:29;;;;;;;1.35;1.15;;;8.30;1.00;;;;;;4952799;28;20149;-81
2023/10/01 06:16:11;;;;;;;0.80;0.80;;;8.30;1.00;;;;;;4964678;28;20485;-88
2023/10/01 06:18:41;;;;;;;1.55;0.80;;;8.30;1.00;;;;;;4975685;28;20053;-79
2023/10/01 06:21:11;;;;;;;0.40;0.40;;;8.40;1.00;;;;;;4962294;28;20039;-80
2023/10/01 06:23:49;;;;;;;1.52;1.00;;;8.50;99.90;;;;;;4962369;28;20034;-80
2023/10/01 06:26:36;;;;;;;1.02;0.88;;;8.60;99.90;;;;;;4972873;28;20159;-82
2023/10/01 06:29:07;;;;;;;1.38;1.27;;;8.70;99.90;;;;;;4981010;28;20035;-81
2023/10/01 06:34:33;;;;;;;2.88;1.45;;;9.00;99.90;;;;;;4924970;28;20062;-82
2023/10/01 06:37:01;;;;;;;1.27;1.17;;;9.10;99.90;;;;;;4968911;28;20367;-81
2023/10/01 06:39:33;;;;;;;0.47;0.47;;;9.30;99.90;;;;;;4973624;28;20134;-80
2023/10/01 06:44:49;;;;;;;0.90;0.52;;;9.60;99.90;;;;;;4952126;28;20105;-80
2023/10/01 06:47:22;;;;;;;1.83;0.95;;;9.80;99.90;;;;;;4955895;28;20357;-79
2023/10/01 06:50:12;;;;;;;1.48;1.05;;;10.00;99.90;;;;;;4974984;28;20034;-83
2023/10/01 06:52:44;;;;;;;1.55;1.00;;;10.20;99.90;;;;;;4953396;28;20047;-80
2023/10/01 06:55:25;;;;;;;2.20;1.98;;;10.50;99.90;;;;;;4966194;28;20074;-81
2023/10/01 06:57:53;;;;;;;2.90;0.80;;;10.70;99.90;;;;;;4936070;29;20054;-80
2023/10/01 07:00:22;;;;;;;1.42;1.25;;;10.80;99.90;;;;;;4969595;28;20035;-80
2023/10/01 07:02:49;;;;;;;2.97;1.40;;;10.90;99.90;;;;;;4973388;28;20042;-78
2023/10/01 07:05:21;;;;;;;5.35;2.60;;;11.10;99.90;;;;;;4974810;28;20046;-81
2023/10/01 07:07:48;;;;;;;0.52;0.52;;;11.30;99.90;;;;;;4975094;28;20054;-82
2023/10/01 07:10:19;;;;;;;5.82;2.63;;;11.50;99.90;;;;;;4985113;28;20037;-82
2023/10/01 07:12:57;;;;;;;;;;;11.80;99.90;;;;;;4978809;28;20042;-84
2023/10/01 07:15:26;;;;;;;2.22;1.35;;;12.00;99.90;;;;;;4960256;28;19911;-83
2023/10/01 07:17:52;;;;;;;6.22;1.65;;;12.20;99.90;;;;;;4956866;28;20046;-79
2023/10/01 07:20:19;;;;;;;1.08;0.95;;;12.40;99.90;;;;;;4971324;28;20340;-85
2023/10/01 07:22:45;;;;;;;3.10;1.38;;;12.60;99.90;;;;;;4973705;28;20035;-82
2023/10/01 07:25:37;;;;;;;3.83;2.17;;;12.70;99.90;;;;;;4973949;28;20053;-82
2023/10/01 07:28:06;;;;;;;0.73;0.68;;;12.90;99.90;;;;;;4963064;28;20047;-81
2023/10/01 07:30:45;;;;;;;0.57;0.50;;;13.20;99.90;;;;;;4970445;28;20377;-81
2023/10/01 07:33:17;;;;;;;1.10;0.88;;;13.40;76.10;;;;;;4940228;28;20050;-80
2023/10/01 07:35:45;;;;;;;1.63;1.15;;;13.60;51.60;;;;;;4973564;28;20043;-84
2023/10/01 07:38:15;;;;;;;2.63;1.17;;;13.70;26.70;;;;;;4963203;28;20044;-82
2023/10/01 07:40:57;;;;;;;6.38;1.60;;;13.80;27.30;;;;;;4939927;28;20039;-81
2023/10/01 07:43:27;;;;;;;1.40;1.02;;;14.00;32.00;;;;;;4972788;28;20034;-82
2023/10/01 07:46:02;;;;;;;0.73;0.73;;;14.20;1.00;;;;;;4973607;28;20043;-80
2023/10/01 07:48:29;;;;;;;1.13;1.02;;;14.50;1.00;;;;;;4967643;28;20400;-80
2023/10/01 07:50:56;;;;;;;2.08;0.77;;;14.70;1.00;;;;;;4967142;28;20031;-80
2023/10/01 07:53:23;;;;;;;1.23;0.68;;;14.90;1.00;;;;;;4972667;28;20448;-81
2023/10/01 07:55:50;;;;;;;1.13;0.75;;;15.00;1.00;;;;;;4947366;28;20389;-81
2023/10/01 07:58:44;;;;;;;1.73;1.50;;;15.20;1.00;;;;;;4973028;28;20417;-80
2023/10/01 08:03:56;;;;;;;1.88;1.60;;;15.40;1.00;;;;;;4976735;28;20491;-80
2023/10/01 08:06:32;;;;;;;2.38;2.00;;;15.60;1.00;;;;;;4983475;28;20038;-81
2023/10/01 08:08:59;;;;;;;0.57;0.40;;;16.00;1.00;;;;;;4975684;28;20043;-80
2023/10/01 08:14:11;;;;;;;3.55;1.17;;;16.50;99.90;;;;;;4974808;28;20033;-81
2023/10/01 08:16:53;;;;;;;1.13;0.47;;;16.40;99.90;;;;;;4960196;28;20034;-80
2023/10/01 08:19:22;;;;;;;0.65;0.63;;;16.60;99.90;;;;;;4974902;28;20047;-80
2023/10/01 08:21:53;;;;;;;0.73;0.73;;;16.80;99.90;;;;;;4965339;28;20031;-80
2023/10/01 08:24:33;;;;;;;4.57;1.45;;;16.80;99.90;;;;;;4964727;28;20577;-79
2023/10/01 08:27:12;;;;;;;3.40;1.08;;;16.90;99.90;;;;;;4969790;28;20038;-77
2023/10/01 08:32:24;;;;;;;0.30;0.30;;;16.90;99.90;;;;;;4964308;28;20039;-80
2023/10/01 08:35:02;;;;;;;0.77;0.70;;;16.80;99.90;;;;;;4962102;28;20070;-80
2023/10/01 08:37:32;;;;;;;1.63;1.30;;;16.90;99.90;;;;;;4972379;28;20452;-79
2023/10/01 08:39:58;;;;;;;1.63;1.52;;;17.40;99.90;;;;;;4948498;28;20035;-80
2023/10/01 08:42:33;;;;;;;1.95;1.85;;;17.70;99.90;;;;;;4942021;28;20039;-78
2023/10/01 08:45:06;;;;;;;2.45;1.67;;;18.00;99.90;;;;;;4963734;28;20031;-78
2023/10/01 08:47:36;;;;;;;1.08;0.98;;;18.20;99.90;;;;;;4974444;28;20031;-80
2023/10/01 08:50:36;;;;;;;1.20;0.90;;;18.10;99.90;;;;;;4973922;28;20037;-84
2023/10/01 08:53:09;;;;;;;2.22;2.03;;;18.40;99.90;;;;;;4972078;28;20050;-79
2023/10/01 08:56:04;;;;;;;0.73;0.57;;;18.60;99.90;;;;;;4974477;28;20137;-79
2023/10/01 08:58:27;;;;;;;4.20;1.85;;;18.70;99.90;;;;;;4971567;28;20065;-79
2023/10/01 09:01:11;;;;;;;1.25;0.98;;;18.70;99.90;;;;;;4969283;28;20043;-82
2023/10/01 09:03:39;;;;;;;0.88;0.88;;;18.10;99.90;;;;;;4958083;28;20384;-79
2023/10/01 09:06:08;;;;;;;2.92;1.98;;;18.10;99.90;;;;;;4964935;28;20058;-80
2023/10/01 09:08:43;;;;;;;3.28;1.45;;;18.70;99.90;;;;;;4968002;28;20047;-79
2023/10/01 09:11:15;;;;;;;1.25;1.02;;;19.40;99.90;;;;;;4939017;28;20038;-79
2023/10/01 09:13:46;;;;;;;1.08;0.80;;;19.80;99.90;;;;;;4970180;28;20042;-81
2023/10/01 09:16:13;;;;;;;2.55;1.52;;;19.80;99.90;;;;;;4969255;28;20045;-80
2023/10/01 09:19:30;;;;;;;1.45;1.27;;;19.40;99.90;;;;;;4978657;28;20049;-80
2023/10/01 09:21:46;;;;;;;4.07;1.40;;;19.80;99.90;;;;;;4975440;28;20035;-79
2023/10/01 09:24:42;;;;;;;1.52;1.25;;;20.30;98.10;;;;;;4977403;28;20038;-80
2023/10/01 09:27:18;;;;;;;1.30;1.17;;;20.10;92.00;;;;;;4971427;28;20026;-78
2023/10/01 09:29:57;;;;;;;1.20;1.10;;;20.40;93.60;;;;;;4972467;28;20362;-79
2023/10/01 09:32:51;;;;;;;5.85;1.85;;;20.30;68.90;;;;;;4976141;28;20093;-77
2023/10/01 09:35:30;;;;;;;1.88;1.75;;;19.70;99.90;;;;;;4971178;28;20055;-80
2023/10/01 09:38:27;;;;;;;0.77;0.70;;;20.10;99.90;;;;;;4979930;28;20047;-79
2023/10/01 09:40:55;;;;;;;0.30;0.30;;;20.00;95.10;;;;;;4976006;28;20058;-76
2023/10/01 09:43:27;;;;;;;0.40;0.40;;;19.80;93.10;;;;;;4979237;28;20038;-76
2023/10/01 09:45:57;;;;;;;2.50;1.45;;;19.60;99.90;;;;;;4982596;28;20042;-74
2023/10/01 09:48:48;;;;;;;0.40;0.40;;;19.90;99.90;;;;;;4973632;28;20045;-76
2023/10/01 09:51:15;;;;;;;2.63;1.42;;;20.20;87.10;;;;;;4978403;28;20106;-75
2023/10/01 09:53:47;;;;;;;1.77;1.17;;;20.00;77.20;;;;;;4981757;28;20111;-77
2023/10/01 09:56:26;;;;;;;0.30;0.30;;;19.40;98.90;;;;;;4974576;28;20046;-77
2023/10/01 09:59:01;;;;;;;1.40;0.93;;;19.50;99.90;;;;;;4973466;28;20114;-78
2023/10/01 10:01:29;;;;;;;2.80;1.00;;;19.70;99.90;;;;;;4951587;28;20035;-76
2023/10/01 10:04:01;;;;;;;2.45;0.80;;;19.90;85.10;;;;;;4978877;28;20333;-77
2023/10/01 10:06:29;;;;;;;1.23;0.80;;;20.00;85.80;;;;;;4973914;28;20037;-77
2023/10/01 10:09:38;;;;;;;0.88;0.85;;;19.90;88.10;;;;;;4972904;28;20042;-78
2023/10/01 10:11:46;;;;;;;2.13;0.98;;;19.90;90.10;;;;;;4948174;28;20043;-78
2023/10/01 10:14:27;;;;;;;1.75;0.65;;;20.10;71.80;;;;;;4961749;28;20031;-76
2023/10/01 10:16:57;;;;;;;1.13;0.50;;;20.20;50.30;;;;;;4945840;28;20047;-80
2023/10/01 10:19:24;;;;;;;0.93;0.80;;;19.80;73.80;;;;;;4966173;28;20043;-76
2023/10/01 10:24:46;;;;;;;1.55;0.77;;;19.70;91.60;;;;;;4974480;28;20456;-78
2023/10/01 10:27:35;;;;;;;0.43;0.43;;;19.90;68.60;;;;;;4968560;28;20027;-77
2023/10/01 10:30:01;;;;;;;3.10;1.02;;;20.10;90.20;;;;;;4956306;28;20051;-77
2023/10/01 10:32:32;;;;;;;1.27;0.73;;;20.30;65.30;;;;;;4963200;28;20122;-76
2023/10/01 10:35:03;;;;;;;0.30;0.30;;;20.30;43.90;;;;;;4977009;28;20047;-77
2023/10/01 10:37:55;;;;;;;0.95;0.40;;;20.40;53.70;;;;;;4985444;28;20475;-76
2023/10/01 10:40:23;;;;;;;4.28;0.88;;;20.60;51.90;;;;;;4973784;28;20046;-78
2023/10/01 10:42:58;;;;;;;0.30;0.30;;;20.70;40.60;;;;;;4970364;28;20031;-77
2023/10/01 10:45:31;;;;;;;0.90;0.68;;;20.70;30.00;;;;;;4977530;28;20030;-79
2023/10/01 10:48:02;;;;;;;1.63;1.35;;;20.70;32.40;;;;;;4980715;28;20050;-78
2023/10/01 10:50:44;;;;;;;1.10;1.00;;;20.60;45.50;;;;;;4979474;28;20030;-77
2023/10/01 10:53:25;;;;;;;2.95;1.35;;;20.70;35.70;;;;;;4952145;28;20058;-77
2023/10/01 10:55:53;;;;;;;0.65;0.57;;;20.60;29.00;;;;;;4976448;28;20476;-76
2023/10/01 10:58:28;;;;;;;0.32;0.30;;;20.80;27.70;;;;;;4958629;28;20067;-76
2023/10/01 11:01:18;;;;;;;1.05;1.05;;;20.90;10.20;;;;;;4967403;28;20042;-79
2023/10/01 11:03:57;;;;;;;1.27;1.15;;;21.00;12.50;;;;;;4939005;28;20065;-77
2023/10/01 11:06:29;;;;;;;4.43;0.40;;;21.10;12.50;;;;;;4970364;28;20426;-77
2023/10/01 11:08:56;;;;;;;1.33;0.77;;;21.40;7.30;;;;;;4973017;28;20083;-78
2023/10/01 11:11:29;;;;;;;0.85;0.63;;;21.50;4.70;;;;;;4969820;28;20038;-77
2023/10/01 11:14:03;;;;;;;0.88;0.50;;;21.40;1.00;;;;;;4964640;28;20035;-78
2023/10/01 11:16:33;;;;;;;3.10;1.08;;;21.60;1.00;;;;;;4963425;28;20042;-77
2023/10/01 11:19:12;;;;;;;;;;;21.60;1.00;;;;;;4974111;28;20387;-77
2023/10/01 11:22:00;;;;;;;2.45;0.93;;;21.50;1.00;;;;;;4968744;28;19910;-78
2023/10/01 11:24:35;;;;;;;1.48;1.17;;;21.20;1.00;;;;;;4964095;28;20481;-76
2023/10/01 11:27:22;;;;;;;0.35;0.35;;;21.00;1.00;;;;;;4967266;28;20031;-79
2023/10/01 11:29:58;;;;;;;1.17;0.75;;;21.10;1.00;;;;;;4982454;28;20046;-78
2023/10/01 11:35:34;;;;;;;1.33;0.60;;;21.60;1.00;;;;;;4973909;28;20062;-76
2023/10/01 11:38:14;;;;;;;0.70;0.70;;;21.70;1.00;;;;;;4958605;28;20065;-77
2023/10/01 11:43:27;;;;;;;0.65;0.65;;;22.10;1.00;;;;;;4972164;28;19918;-78
2023/10/01 11:46:19;;;;;;;0.63;0.63;;;22.20;1.00;;;;;;4938462;28;20047;-76
2023/10/01 11:48:56;;;;;;;0.75;0.68;;;22.10;1.00;;;;;;4966865;28;20051;-76
2023/10/01 11:51:32;;;;;;;0.80;0.40;;;22.00;1.00;;;;;;4973908;28;20427;-76
2023/10/01 11:54:11;;;;;;;0.70;0.50;;;22.00;1.00;;;;;;4971199;28;20368;-76
2023/10/01 11:56:42;;;;;;;1.33;1.23;;;22.10;1.00;;;;;;4966933;28;20035;-75
2023/10/01 11:59:11;;;;;;;1.38;1.27;;;22.30;1.00;;;;;;4963626;28;20070;-78
2023/10/01 12:01:47;;;;;;;0.30;0.30;;;22.20;1.00;;;;;;4973811;28;20026;-79
2023/10/01 12:04:21;;;;;;;0.75;0.73;;;22.30;1.00;;;;;;4968761;28;20050;-77
2023/10/01 12:06:50;;;;;;;0.63;0.30;;;22.30;1.00;;;;;;4965392;28;20034;-76
2023/10/01 12:09:18;;;;;;;1.27;0.63;;;22.40;1.00;;;;;;4960472;28;20060;-75
2023/10/01 12:12:02;;;;;;;4.80;1.42;;;22.40;1.00;;;;;;4969903;28;20039;-76
2023/10/01 12:14:32;;;;;;;0.60;0.60;;;22.50;1.00;;;;;;4953195;28;20031;-76
2023/10/01 12:17:01;;;;;;;2.37;0.90;;;22.60;1.00;;;;;;4961919;28;20109;-76
2023/10/01 12:19:29;;;;;;;0.90;0.88;;;22.70;1.00;;;;;;4969116;28;20365;-76
2023/10/01 12:22:09;;;;;;;1.55;1.00;;;22.80;1.00;;;;;;4968647;28;20042;-77
2023/10/01 12:24:44;;;;;;;4.53;1.58;;;22.70;1.00;;;;;;4950745;28;20038;-76
2023/10/01 12:27:37;;;;;;;2.70;1.42;;;22.80;1.00;;;;;;4951795;28;20596;-76
2023/10/01 12:29:58;;;;;;;6.35;2.05;;;22.80;1.00;;;;;;4960081;28;20100;-78
2023/10/01 12:32:37;;;;;;;0.73;0.73;;;22.80;1.00;;;;;;4960686;28;20039;-76
2023/10/01 12:35:18;;;;;;;2.97;1.55;;;23.00;1.00;;;;;;4951089;28;20062;-77
2023/10/01 12:37:45;;;;;;;0.65;0.52;;;23.00;1.00;;;;;;4961607;28;20050;-78
2023/10/01 12:40:16;;;;;;;0.82;0.70;;;23.10;1.00;;;;;;4963909;28;20485;-80
2023/10/01 12:42:50;;;;;;;0.70;0.70;;;23.10;1.00;;;;;;4972240;28;20488;-78
2023/10/01 12:45:19;;;;;;;2.83;0.77;;;23.10;1.00;;;;;;4969075;28;20026;-77
2023/10/01 12:47:52;;;;;;;1.48;1.00;;;23.30;1.00;;;;;;4966326;28;20395;-77
2023/10/01 12:50:26;;;;;;;1.35;1.25;;;23.10;1.00;;;;;;4969941;28;20477;-76
2023/10/01 12:55:51;;;;;;;1.40;1.13;;;23.00;1.00;;;;;;4971147;28;20031;-76
2023/10/01 12:58:22;;;;;;;1.00;0.80;;;23.00;1.00;;;;;;4964925;28;20036;-76
2023/10/01 13:00:50;;;;;;;4.20;1.05;;;23.10;1.00;;;;;;4961643;28;20057;-78
2023/10/01 13:03:19;;;;;;;3.05;0.85;;;23.30;1.00;;;;;;4959721;28;20019;-77
2023/10/01 13:05:48;;;;;;;1.40;1.30;;;23.30;1.00;;;;;;4971934;28;20035;-78
2023/10/01 13:08:27;;;;;;;1.77;0.68;;;23.40;1.00;;;;;;4967505;28;20043;-82
2023/10/01 13:10:57;;;;;;;2.95;1.17;;;23.50;1.00;;;;;;4947471;28;20047;-75
2023/10/01 13:13:29;;;;;;;;;;;23.50;1.00;;;;;;4965951;28;20035;-76
2023/10/01 13:15:57;;;;;;;1.58;1.27;;;23.50;1.00;;;;;;4980686;28;19914;-76
2023/10/01 13:18:28;;;;;;;1.60;1.30;;;23.30;1.00;;;;;;4978592;28;20032;-75
2023/10/01 13:23:24;;;;;;;2.47;1.50;;;23.20;1.00;;;;;;4969532;28;20030;-76
2023/10/01 13:26:05;;;;;;;3.70;1.50;;;23.30;1.00;;;;;;4968605;28;20082;-76
2023/10/01 13:28:50;;;;;;;9.05;3.00;;;23.40;1.00;;;;;;4971920;28;20034;-77
2023/10/01 14:09:49;;;;;;;0.33;0.33;;;23.40;1.00;;;;;;4947568;28;20046;-77
2023/10/01 14:12:41;;;;;;;0.85;0.85;;;23.50;1.00;;;;;;4945837;28;20301;-76
2023/10/01 14:15:20;;;;;;;0.63;0.60;;;23.60;1.00;;;;;;4972789;28;20038;-76
2023/10/01 14:17:58;;;;;;;0.35;0.35;;;23.60;1.00;;;;;;4971717;28;20046;-77
2023/10/01 14:20:38;;;;;;;1.63;1.52;;;23.60;1.00;;;;;;4972242;28;20480;-77
2023/10/01 14:23:06;;;;;;;;;;;23.70;1.00;;;;;;4971848;28;20035;-76
2023/10/01 14:25:52;;;;;;;6.75;1.65;;;23.70;1.00;;;;;;4971757;28;19910;-76
2023/10/01 14:28:22;;;;;;;2.72;0.85;;;23.60;1.00;;;;;;4966090;28;20043;-81
2023/10/01 14:31:08;;;;;;;1.48;1.25;;;23.70;1.00;;;;;;4972982;28;20043;-77
2023/10/01 14:33:40;;;;;;;1.65;1.55;;;23.90;1.00;;;;;;4971261;28;20070;-77
2023/10/01 14:36:10;;;;;;;1.10;0.70;;;23.90;1.00;;;;;;4965190;28;20050;-76
2023/10/01 14:38:42;;;;;;;;;;;23.80;1.00;;;;;;4966780;28;20035;-77
2023/10/01 14:41:10;;;;;;;6.55;1.17;;;23.60;1.00;;;;;;4966834;28;19932;-77
2023/10/01 14:43:51;;;;;;;1.33;1.10;;;23.60;1.00;;;;;;4975361;28;20449;-76
2023/10/01 14:46:30;;;;;;;1.60;1.08;;;23.80;1.00;;;;;;4967702;28;20038;-75
2023/10/01 14:49:04;;;;;;;0.30;0.30;;;23.60;1.00;;;;;;4964655;28;20042;-76
2023/10/01 14:51:36;;;;;;;1.40;1.30;;;23.70;1.00;;;;;;4946044;28;20042;-76
2023/10/01 14:54:04;;;;;;;1.30;0.95;;;23.80;1.00;;;;;;4972975;28;20035;-76
2023/10/01 14:56:33;;;;;;;1.80;1.05;;;23.60;1.00;;;;;;4973427;28;20039;-76
2023/10/01 14:59:04;;;;;;;4.95;1.80;;;23.60;1.00;;;;;;4978751;28;20054;-76